sensor_id;sensor_type;location;lat;lon;timestamp;temperature;humidity
41924;DHT22;27613;48.116;11.656;2022-08-03T00:01:37;18.80;95.30
41924;DHT22;27613;48.116;11.656;2022-08-03T00:04:04;18.80;95.30
41924;DHT22;27613;48.116;11.656;2022-08-03T00:06:30;18.70;95.30
41924;DHT22;27613;48.116;11.656;2022-08-03T00:08:56;18.60;95.20
41924;DHT22;27613;48.116;11.656;2022-08-03T00:11:21;18.60;95.30
41924;DHT22;27613;48.116;11.656;2022-08-03T00:13:47;18.60;94.90
41924;DHT22;27613;48.116;11.656;2022-08-03T00:16:13;18.60;94.70
41924;DHT22;27613;48.116;11.656;2022-08-03T00:18:39;18.60;94.80
41924;DHT22;27613;48.116;11.656;2022-08-03T00:21:05;18.40;94.90
41924;DHT22;27613;48.116;11.656;2022-08-03T00:23:30;18.40;94.90
41924;DHT22;27613;48.116;11.656;2022-08-03T00:25:56;18.40;95.00
41924;DHT22;27613;48.116;11.656;2022-08-03T00:28:22;18.50;94.60
41924;DHT22;27613;48.116;11.656;2022-08-03T00:30:48;18.50;94.20
41924;DHT22;27613;48.116;11.656;2022-08-03T00:33:14;18.50;94.60
41924;DHT22;27613;48.116;11.656;2022-08-03T00:35:40;18.40;94.60
41924;DHT22;27613;48.116;11.656;2022-08-03T00:38:05;18.50;94.60
41924;DHT22;27613;48.116;11.656;2022-08-03T00:40:32;18.40;94.60
41924;DHT22;27613;48.116;11.656;2022-08-03T00:42:59;18.40;94.30
41924;DHT22;27613;48.116;11.656;2022-08-03T00:45:31;18.30;94.50
41924;DHT22;27613;48.116;11.656;2022-08-03T00:47:57;18.30;94.90
41924;DHT22;27613;48.116;11.656;2022-08-03T00:50:24;18.20;95.10
41924;DHT22;27613;48.116;11.656;2022-08-03T00:52:52;18.20;95.30
41924;DHT22;27613;48.116;11.656;2022-08-03T00:55:18;18.20;95.30
41924;DHT22;27613;48.116;11.656;2022-08-03T00:57:44;18.10;95.30
41924;DHT22;27613;48.116;11.656;2022-08-03T01:00:12;18.10;95.50
41924;DHT22;27613;48.116;11.656;2022-08-03T01:02:38;17.80;96.20
41924;DHT22;27613;48.116;11.656;2022-08-03T01:05:04;17.60;97.00
41924;DHT22;27613;48.116;11.656;2022-08-03T01:10:21;17.60;97.50
41924;DHT22;27613;48.116;11.656;2022-08-03T01:13:04;17.50;97.80
41924;DHT22;27613;48.116;11.656;2022-08-03T01:15:45;17.50;98.00
41924;DHT22;27613;48.116;11.656;2022-08-03T01:21:02;17.50;98.20
41924;DHT22;27613;48.116;11.656;2022-08-03T01:24:02;17.50;98.40
41924;DHT22;27613;48.116;11.656;2022-08-03T01:26:52;17.50;98.00
41924;DHT22;27613;48.116;11.656;2022-08-03T01:29:40;17.40;98.40
41924;DHT22;27613;48.116;11.656;2022-08-03T01:32:14;17.40;99.00
41924;DHT22;27613;48.116;11.656;2022-08-03T01:34:46;17.40;98.80
41924;DHT22;27613;48.116;11.656;2022-08-03T01:37:15;17.40;99.00
41924;DHT22;27613;48.116;11.656;2022-08-03T01:39:44;17.40;99.10
41924;DHT22;27613;48.116;11.656;2022-08-03T01:42:10;17.40;99.00
41924;DHT22;27613;48.116;11.656;2022-08-03T01:44:40;17.40;98.90
41924;DHT22;27613;48.116;11.656;2022-08-03T01:47:07;17.30;99.00
41924;DHT22;27613;48.116;11.656;2022-08-03T01:49:38;17.30;99.20
41924;DHT22;27613;48.116;11.656;2022-08-03T01:52:05;17.30;99.30
41924;DHT22;27613;48.116;11.656;2022-08-03T01:54:35;17.30;99.60
41924;DHT22;27613;48.116;11.656;2022-08-03T01:57:02;17.20;99.80
41924;DHT22;27613;48.116;11.656;2022-08-03T01:59:29;17.20;99.90
41924;DHT22;27613;48.116;11.656;2022-08-03T02:01:57;17.20;99.90
41924;DHT22;27613;48.116;11.656;2022-08-03T02:04:25;17.20;99.90
41924;DHT22;27613;48.116;11.656;2022-08-03T02:06:52;17.10;99.90
41924;DHT22;27613;48.116;11.656;2022-08-03T02:09:20;16.90;99.90
41924;DHT22;27613;48.116;11.656;2022-08-03T02:11:46;16.80;99.90
41924;DHT22;27613;48.116;11.656;2022-08-03T02:14:13;16.70;99.90
41924;DHT22;27613;48.116;11.656;2022-08-03T02:16:39;16.60;99.90
41924;DHT22;27613;48.116;11.656;2022-08-03T02:19:06;16.70;99.90
41924;DHT22;27613;48.116;11.656;2022-08-03T02:21:35;16.70;99.90
41924;DHT22;27613;48.116;11.656;2022-08-03T02:24:02;16.50;99.90
41924;DHT22;27613;48.116;11.656;2022-08-03T02:26:29;16.50;99.90
41924;DHT22;27613;48.116;11.656;2022-08-03T02:28:59;16.60;99.90
41924;DHT22;27613;48.116;11.656;2022-08-03T02:31:28;16.60;99.90
41924;DHT22;27613;48.116;11.656;2022-08-03T02:34:03;16.60;99.90
41924;DHT22;27613;48.116;11.656;2022-08-03T02:36:35;16.50;99.90
41924;DHT22;27613;48.116;11.656;2022-08-03T02:39:02;16.50;99.90
41924;DHT22;27613;48.116;11.656;2022-08-03T02:41:37;16.60;99.90
41924;DHT22;27613;48.116;11.656;2022-08-03T02:44:08;16.60;99.90
41924;DHT22;27613;48.116;11.656;2022-08-03T02:46:38;16.60;99.90
41924;DHT22;27613;48.116;11.656;2022-08-03T02:49:06;16.50;99.90
41924;DHT22;27613;48.116;11.656;2022-08-03T02:51:34;16.50;99.90
41924;DHT22;27613;48.116;11.656;2022-08-03T02:54:02;16.50;99.90
41924;DHT22;27613;48.116;11.656;2022-08-03T02:56:29;16.40;99.90
41924;DHT22;27613;48.116;11.656;2022-08-03T02:58:57;16.40;99.90
41924;DHT22;27613;48.116;11.656;2022-08-03T03:01:24;16.40;99.90
41924;DHT22;27613;48.116;11.656;2022-08-03T03:03:53;16.30;99.90
41924;DHT22;27613;48.116;11.656;2022-08-03T03:06:20;16.30;99.90
41924;DHT22;27613;48.116;11.656;2022-08-03T03:08:47;16.30;99.90
41924;DHT22;27613;48.116;11.656;2022-08-03T03:11:14;16.20;99.90
41924;DHT22;27613;48.116;11.656;2022-08-03T03:13:42;16.20;99.90
41924;DHT22;27613;48.116;11.656;2022-08-03T03:16:09;16.10;99.90
41924;DHT22;27613;48.116;11.656;2022-08-03T03:18:37;16.10;99.90
41924;DHT22;27613;48.116;11.656;2022-08-03T03:21:03;16.10;99.90
41924;DHT22;27613;48.116;11.656;2022-08-03T03:23:30;16.10;99.90
41924;DHT22;27613;48.116;11.656;2022-08-03T03:25:56;16.00;99.90
41924;DHT22;27613;48.116;11.656;2022-08-03T03:28:23;16.00;99.90
41924;DHT22;27613;48.116;11.656;2022-08-03T03:30:49;15.90;99.90
41924;DHT22;27613;48.116;11.656;2022-08-03T03:33:16;15.90;99.90
41924;DHT22;27613;48.116;11.656;2022-08-03T03:35:42;16.00;99.90
41924;DHT22;27613;48.116;11.656;2022-08-03T03:38:09;15.90;99.90
41924;DHT22;27613;48.116;11.656;2022-08-03T03:40:35;15.80;99.90
41924;DHT22;27613;48.116;11.656;2022-08-03T03:43:01;15.80;99.90
41924;DHT22;27613;48.116;11.656;2022-08-03T03:45:28;15.80;99.90
41924;DHT22;27613;48.116;11.656;2022-08-03T03:47:55;15.80;99.90
41924;DHT22;27613;48.116;11.656;2022-08-03T03:50:21;15.80;99.90
41924;DHT22;27613;48.116;11.656;2022-08-03T03:52:48;15.80;99.90
41924;DHT22;27613;48.116;11.656;2022-08-03T03:55:17;15.80;99.90
41924;DHT22;27613;48.116;11.656;2022-08-03T03:57:43;15.80;99.90
41924;DHT22;27613;48.116;11.656;2022-08-03T04:00:10;15.80;99.90
41924;DHT22;27613;48.116;11.656;2022-08-03T04:02:36;15.80;99.90
41924;DHT22;27613;48.116;11.656;2022-08-03T04:05:03;15.70;99.90
41924;DHT22;27613;48.116;11.656;2022-08-03T04:08:16;15.70;99.90
41924;DHT22;27613;48.116;11.656;2022-08-03T04:14:00;15.70;99.90
41924;DHT22;27613;48.116;11.656;2022-08-03T04:16:29;15.70;99.90
41924;DHT22;27613;48.116;11.656;2022-08-03T04:19:00;15.70;99.90
41924;DHT22;27613;48.116;11.656;2022-08-03T04:21:28;15.70;99.90
41924;DHT22;27613;48.116;11.656;2022-08-03T04:23:59;15.80;99.90
41924;DHT22;27613;48.116;11.656;2022-08-03T04:26:29;15.80;99.90
41924;DHT22;27613;48.116;11.656;2022-08-03T04:28:56;15.70;99.90
41924;DHT22;27613;48.116;11.656;2022-08-03T04:31:23;15.80;99.90
41924;DHT22;27613;48.116;11.656;2022-08-03T04:33:51;15.80;99.90
41924;DHT22;27613;48.116;11.656;2022-08-03T04:36:20;15.90;99.90
41924;DHT22;27613;48.116;11.656;2022-08-03T04:39:07;15.90;99.90
41924;DHT22;27613;48.116;11.656;2022-08-03T04:41:33;15.90;99.90
41924;DHT22;27613;48.116;11.656;2022-08-03T04:44:00;15.90;99.90
41924;DHT22;27613;48.116;11.656;2022-08-03T04:46:30;16.00;99.90
41924;DHT22;27613;48.116;11.656;2022-08-03T04:48:56;16.00;99.90
41924;DHT22;27613;48.116;11.656;2022-08-03T04:51:23;16.00;99.90
41924;DHT22;27613;48.116;11.656;2022-08-03T04:53:49;16.10;99.90
41924;DHT22;27613;48.116;11.656;2022-08-03T04:56:15;16.10;99.90
41924;DHT22;27613;48.116;11.656;2022-08-03T04:58:40;16.20;99.90
41924;DHT22;27613;48.116;11.656;2022-08-03T05:01:06;16.20;99.90
41924;DHT22;27613;48.116;11.656;2022-08-03T05:03:32;16.30;99.90
41924;DHT22;27613;48.116;11.656;2022-08-03T05:05:57;16.30;99.90
41924;DHT22;27613;48.116;11.656;2022-08-03T05:08:23;16.40;99.90
41924;DHT22;27613;48.116;11.656;2022-08-03T05:10:48;16.50;99.90
41924;DHT22;27613;48.116;11.656;2022-08-03T05:13:14;16.50;99.90
41924;DHT22;27613;48.116;11.656;2022-08-03T05:15:40;16.60;99.90
41924;DHT22;27613;48.116;11.656;2022-08-03T05:18:06;16.70;99.90
41924;DHT22;27613;48.116;11.656;2022-08-03T05:20:32;16.70;99.90
41924;DHT22;27613;48.116;11.656;2022-08-03T05:22:57;16.80;99.90
41924;DHT22;27613;48.116;11.656;2022-08-03T05:25:26;16.80;99.90
41924;DHT22;27613;48.116;11.656;2022-08-03T05:27:51;16.90;99.90
41924;DHT22;27613;48.116;11.656;2022-08-03T05:30:17;17.00;99.90
41924;DHT22;27613;48.116;11.656;2022-08-03T05:32:42;17.10;99.90
41924;DHT22;27613;48.116;11.656;2022-08-03T05:35:08;17.20;99.90
41924;DHT22;27613;48.116;11.656;2022-08-03T05:37:34;17.20;99.90
41924;DHT22;27613;48.116;11.656;2022-08-03T05:39:59;17.30;99.90
41924;DHT22;27613;48.116;11.656;2022-08-03T05:42:25;17.70;99.90
41924;DHT22;27613;48.116;11.656;2022-08-03T05:44:50;18.80;97.10
41924;DHT22;27613;48.116;11.656;2022-08-03T05:47:16;19.50;94.60
41924;DHT22;27613;48.116;11.656;2022-08-03T05:49:41;19.50;93.70
41924;DHT22;27613;48.116;11.656;2022-08-03T05:52:07;19.20;92.60
41924;DHT22;27613;48.116;11.656;2022-08-03T05:54:33;19.10;93.80
41924;DHT22;27613;48.116;11.656;2022-08-03T05:56:58;18.80;94.50
41924;DHT22;27613;48.116;11.656;2022-08-03T05:59:24;18.90;94.30
41924;DHT22;27613;48.116;11.656;2022-08-03T06:01:50;19.20;93.50
41924;DHT22;27613;48.116;11.656;2022-08-03T06:04:16;19.40;93.40
41924;DHT22;27613;48.116;11.656;2022-08-03T06:06:42;19.80;92.60
41924;DHT22;27613;48.116;11.656;2022-08-03T06:09:08;20.00;91.90
41924;DHT22;27613;48.116;11.656;2022-08-03T06:11:35;20.00;91.60
41924;DHT22;27613;48.116;11.656;2022-08-03T06:14:02;20.20;91.40
41924;DHT22;27613;48.116;11.656;2022-08-03T06:16:27;20.20;91.40
41924;DHT22;27613;48.116;11.656;2022-08-03T06:18:53;20.20;91.40
41924;DHT22;27613;48.116;11.656;2022-08-03T06:21:18;20.30;91.00
41924;DHT22;27613;48.116;11.656;2022-08-03T06:23:45;20.50;90.50
41924;DHT22;27613;48.116;11.656;2022-08-03T06:26:12;20.50;90.50
41924;DHT22;27613;48.116;11.656;2022-08-03T06:28:37;20.10;90.80
41924;DHT22;27613;48.116;11.656;2022-08-03T06:31:03;20.00;91.20
41924;DHT22;27613;48.116;11.656;2022-08-03T06:33:29;20.10;91.10
41924;DHT22;27613;48.116;11.656;2022-08-03T06:35:55;20.10;90.80
41924;DHT22;27613;48.116;11.656;2022-08-03T06:38:20;20.40;90.60
41924;DHT22;27613;48.116;11.656;2022-08-03T06:40:46;20.60;90.00
41924;DHT22;27613;48.116;11.656;2022-08-03T06:43:11;20.60;89.00
41924;DHT22;27613;48.116;11.656;2022-08-03T06:45:39;20.50;88.70
41924;DHT22;27613;48.116;11.656;2022-08-03T06:48:07;20.50;90.00
41924;DHT22;27613;48.116;11.656;2022-08-03T06:50:34;20.70;89.50
41924;DHT22;27613;48.116;11.656;2022-08-03T06:53:01;20.90;88.50
41924;DHT22;27613;48.116;11.656;2022-08-03T06:55:27;20.90;88.60
41924;DHT22;27613;48.116;11.656;2022-08-03T06:57:53;21.10;87.60
41924;DHT22;27613;48.116;11.656;2022-08-03T07:00:19;21.10;87.30
41924;DHT22;27613;48.116;11.656;2022-08-03T07:02:44;21.20;86.30
41924;DHT22;27613;48.116;11.656;2022-08-03T07:05:10;21.20;86.90
41924;DHT22;27613;48.116;11.656;2022-08-03T07:07:36;21.50;85.90
41924;DHT22;27613;48.116;11.656;2022-08-03T07:10:03;21.50;85.60
41924;DHT22;27613;48.116;11.656;2022-08-03T07:12:29;21.40;85.60
41924;DHT22;27613;48.116;11.656;2022-08-03T07:14:57;21.30;85.90
41924;DHT22;27613;48.116;11.656;2022-08-03T07:17:22;21.30;84.60
41924;DHT22;27613;48.116;11.656;2022-08-03T07:19:48;21.30;85.00
41924;DHT22;27613;48.116;11.656;2022-08-03T07:22:14;21.40;85.60
41924;DHT22;27613;48.116;11.656;2022-08-03T07:24:39;21.50;85.80
41924;DHT22;27613;48.116;11.656;2022-08-03T07:27:07;21.60;84.80
41924;DHT22;27613;48.116;11.656;2022-08-03T07:29:33;21.70;84.90
41924;DHT22;27613;48.116;11.656;2022-08-03T07:31:59;21.70;84.60
41924;DHT22;27613;48.116;11.656;2022-08-03T07:34:25;21.70;84.50
41924;DHT22;27613;48.116;11.656;2022-08-03T07:36:51;22.00;84.60
41924;DHT22;27613;48.116;11.656;2022-08-03T07:39:16;22.00;83.30
41924;DHT22;27613;48.116;11.656;2022-08-03T07:41:42;22.00;83.20
41924;DHT22;27613;48.116;11.656;2022-08-03T07:44:08;22.10;83.10
41924;DHT22;27613;48.116;11.656;2022-08-03T07:46:33;22.20;84.00
41924;DHT22;27613;48.116;11.656;2022-08-03T07:48:59;22.20;84.70
41924;DHT22;27613;48.116;11.656;2022-08-03T07:51:26;22.40;83.10
41924;DHT22;27613;48.116;11.656;2022-08-03T07:53:52;22.50;84.30
41924;DHT22;27613;48.116;11.656;2022-08-03T07:56:18;22.50;83.80
41924;DHT22;27613;48.116;11.656;2022-08-03T07:58:43;22.70;84.00
41924;DHT22;27613;48.116;11.656;2022-08-03T08:01:09;22.80;83.40
41924;DHT22;27613;48.116;11.656;2022-08-03T08:03:35;23.00;83.40
41924;DHT22;27613;48.116;11.656;2022-08-03T08:06:00;23.30;80.80
41924;DHT22;27613;48.116;11.656;2022-08-03T08:08:26;23.50;80.60
41924;DHT22;27613;48.116;11.656;2022-08-03T08:10:52;23.50;81.10
41924;DHT22;27613;48.116;11.656;2022-08-03T08:13:17;23.80;78.60
41924;DHT22;27613;48.116;11.656;2022-08-03T08:15:43;23.80;78.00
41924;DHT22;27613;48.116;11.656;2022-08-03T08:18:08;24.10;79.00
41924;DHT22;27613;48.116;11.656;2022-08-03T08:20:34;24.30;77.00
41924;DHT22;27613;48.116;11.656;2022-08-03T08:23:06;24.30;78.10
41924;DHT22;27613;48.116;11.656;2022-08-03T08:25:32;24.50;75.00
41924;DHT22;27613;48.116;11.656;2022-08-03T08:27:59;24.70;72.10
41924;DHT22;27613;48.116;11.656;2022-08-03T08:30:29;25.00;71.20
41924;DHT22;27613;48.116;11.656;2022-08-03T08:32:55;25.00;72.60
41924;DHT22;27613;48.116;11.656;2022-08-03T08:35:26;25.20;69.40
41924;DHT22;27613;48.116;11.656;2022-08-03T08:37:53;25.40;68.40
41924;DHT22;27613;48.116;11.656;2022-08-03T08:40:20;25.50;68.30
41924;DHT22;27613;48.116;11.656;2022-08-03T08:42:46;25.60;65.50
41924;DHT22;27613;48.116;11.656;2022-08-03T08:45:12;25.70;68.20
41924;DHT22;27613;48.116;11.656;2022-08-03T08:47:43;25.80;68.40
41924;DHT22;27613;48.116;11.656;2022-08-03T08:50:09;26.00;66.80
41924;DHT22;27613;48.116;11.656;2022-08-03T08:52:36;26.40;65.30
41924;DHT22;27613;48.116;11.656;2022-08-03T08:55:06;26.40;65.50
41924;DHT22;27613;48.116;11.656;2022-08-03T08:57:37;26.60;64.40
41924;DHT22;27613;48.116;11.656;2022-08-03T09:00:05;26.80;63.90
41924;DHT22;27613;48.116;11.656;2022-08-03T09:02:33;27.10;62.80
41924;DHT22;27613;48.116;11.656;2022-08-03T09:05:00;27.30;64.30
41924;DHT22;27613;48.116;11.656;2022-08-03T09:07:27;27.60;61.90
41924;DHT22;27613;48.116;11.656;2022-08-03T09:09:53;27.70;60.70
41924;DHT22;27613;48.116;11.656;2022-08-03T09:12:18;28.10;60.50
41924;DHT22;27613;48.116;11.656;2022-08-03T09:14:44;28.80;60.80
41924;DHT22;27613;48.116;11.656;2022-08-03T09:17:09;29.50;58.10
41924;DHT22;27613;48.116;11.656;2022-08-03T09:19:35;30.30;55.50
41924;DHT22;27613;48.116;11.656;2022-08-03T09:22:11;31.00;55.50
41924;DHT22;27613;48.116;11.656;2022-08-03T09:24:38;32.00;53.50
41924;DHT22;27613;48.116;11.656;2022-08-03T09:27:10;32.40;51.80
41924;DHT22;27613;48.116;11.656;2022-08-03T09:29:37;32.80;50.50
41924;DHT22;27613;48.116;11.656;2022-08-03T09:32:03;33.00;49.30
41924;DHT22;27613;48.116;11.656;2022-08-03T09:34:29;33.90;48.00
41924;DHT22;27613;48.116;11.656;2022-08-03T09:36:55;34.00;47.20
41924;DHT22;27613;48.116;11.656;2022-08-03T09:39:26;34.60;46.90
41924;DHT22;27613;48.116;11.656;2022-08-03T09:42:16;34.60;47.70
41924;DHT22;27613;48.116;11.656;2022-08-03T09:44:48;35.50;47.00
41924;DHT22;27613;48.116;11.656;2022-08-03T09:47:16;36.20;43.40
41924;DHT22;27613;48.116;11.656;2022-08-03T09:50:05;36.30;43.90
41924;DHT22;27613;48.116;11.656;2022-08-03T09:52:35;36.50;42.40
41924;DHT22;27613;48.116;11.656;2022-08-03T09:55:08;36.90;43.20
41924;DHT22;27613;48.116;11.656;2022-08-03T09:57:34;37.80;42.20
41924;DHT22;27613;48.116;11.656;2022-08-03T10:00:15;38.30;41.30
41924;DHT22;27613;48.116;11.656;2022-08-03T10:02:42;38.50;39.10
41924;DHT22;27613;48.116;11.656;2022-08-03T10:05:10;38.90;39.00
41924;DHT22;27613;48.116;11.656;2022-08-03T10:07:47;38.80;39.60
41924;DHT22;27613;48.116;11.656;2022-08-03T10:10:14;39.10;40.40
41924;DHT22;27613;48.116;11.656;2022-08-03T10:12:41;39.60;40.30
41924;DHT22;27613;48.116;11.656;2022-08-03T10:15:08;40.00;39.10
41924;DHT22;27613;48.116;11.656;2022-08-03T10:17:35;40.30;37.30
41924;DHT22;27613;48.116;11.656;2022-08-03T10:20:01;39.80;39.20
41924;DHT22;27613;48.116;11.656;2022-08-03T10:22:34;40.30;39.10
41924;DHT22;27613;48.116;11.656;2022-08-03T10:25:06;40.40;39.00
41924;DHT22;27613;48.116;11.656;2022-08-03T10:27:37;40.10;38.30
41924;DHT22;27613;48.116;11.656;2022-08-03T10:30:06;40.20;38.30
41924;DHT22;27613;48.116;11.656;2022-08-03T10:32:43;40.70;39.60
41924;DHT22;27613;48.116;11.656;2022-08-03T10:35:14;40.70;38.10
41924;DHT22;27613;48.116;11.656;2022-08-03T10:37:42;41.40;38.80
41924;DHT22;27613;48.116;11.656;2022-08-03T10:40:14;40.80;38.60
41924;DHT22;27613;48.116;11.656;2022-08-03T10:42:41;41.20;37.50
41924;DHT22;27613;48.116;11.656;2022-08-03T10:45:14;40.50;38.70
41924;DHT22;27613;48.116;11.656;2022-08-03T10:47:42;41.60;37.90
41924;DHT22;27613;48.116;11.656;2022-08-03T10:50:08;42.30;36.80
41924;DHT22;27613;48.116;11.656;2022-08-03T10:52:34;41.90;37.40
41924;DHT22;27613;48.116;11.656;2022-08-03T10:55:00;42.30;36.70
41924;DHT22;27613;48.116;11.656;2022-08-03T10:57:53;42.90;36.00
41924;DHT22;27613;48.116;11.656;2022-08-03T11:00:23;42.10;36.10
41924;DHT22;27613;48.116;11.656;2022-08-03T11:03:11;42.10;36.70
41924;DHT22;27613;48.116;11.656;2022-08-03T11:05:46;42.70;35.50
41924;DHT22;27613;48.116;11.656;2022-08-03T11:08:33;42.00;35.90
41924;DHT22;27613;48.116;11.656;2022-08-03T11:14:06;42.90;35.60
41924;DHT22;27613;48.116;11.656;2022-08-03T11:16:37;43.20;35.10
41924;DHT22;27613;48.116;11.656;2022-08-03T11:19:06;43.00;35.30
41924;DHT22;27613;48.116;11.656;2022-08-03T11:35:10;42.90;33.90
41924;DHT22;27613;48.116;11.656;2022-08-03T11:40:34;42.00;34.10
41924;DHT22;27613;48.116;11.656;2022-08-03T11:43:01;41.60;33.70
41924;DHT22;27613;48.116;11.656;2022-08-03T11:45:27;41.60;33.70
41924;DHT22;27613;48.116;11.656;2022-08-03T11:47:54;42.40;34.30
41924;DHT22;27613;48.116;11.656;2022-08-03T11:50:20;42.60;34.40
41924;DHT22;27613;48.116;11.656;2022-08-03T11:52:47;43.20;33.50
41924;DHT22;27613;48.116;11.656;2022-08-03T11:55:16;42.90;33.40
41924;DHT22;27613;48.116;11.656;2022-08-03T11:57:43;43.50;33.00
41924;DHT22;27613;48.116;11.656;2022-08-03T12:00:27;42.50;33.00
41924;DHT22;27613;48.116;11.656;2022-08-03T12:03:14;42.90;34.20
41924;DHT22;27613;48.116;11.656;2022-08-03T12:08:15;44.00;33.00
41924;DHT22;27613;48.116;11.656;2022-08-03T12:10:47;44.30;32.90
41924;DHT22;27613;48.116;11.656;2022-08-03T12:13:13;44.40;32.90
41924;DHT22;27613;48.116;11.656;2022-08-03T12:15:40;44.00;33.00
41924;DHT22;27613;48.116;11.656;2022-08-03T12:18:17;44.10;32.30
41924;DHT22;27613;48.116;11.656;2022-08-03T12:20:43;41.90;31.60
41924;DHT22;27613;48.116;11.656;2022-08-03T12:23:10;40.20;34.30
41924;DHT22;27613;48.116;11.656;2022-08-03T12:25:38;41.00;34.70
41924;DHT22;27613;48.116;11.656;2022-08-03T12:30:33;41.80;32.40
41924;DHT22;27613;48.116;11.656;2022-08-03T12:35:42;41.80;33.40
41924;DHT22;27613;48.116;11.656;2022-08-03T12:38:09;42.90;33.60
41924;DHT22;27613;48.116;11.656;2022-08-03T12:40:35;42.50;34.10
41924;DHT22;27613;48.116;11.656;2022-08-03T12:43:10;43.10;33.10
41924;DHT22;27613;48.116;11.656;2022-08-03T12:45:35;44.20;31.80
41924;DHT22;27613;48.116;11.656;2022-08-03T12:48:01;44.00;32.40
41924;DHT22;27613;48.116;11.656;2022-08-03T12:50:29;43.80;31.70
41924;DHT22;27613;48.116;11.656;2022-08-03T12:52:56;43.90;30.50
41924;DHT22;27613;48.116;11.656;2022-08-03T12:55:23;43.30;30.40
41924;DHT22;27613;48.116;11.656;2022-08-03T12:57:50;43.70;32.20
41924;DHT22;27613;48.116;11.656;2022-08-03T13:00:17;44.00;32.50
41924;DHT22;27613;48.116;11.656;2022-08-03T13:02:43;43.50;31.70
41924;DHT22;27613;48.116;11.656;2022-08-03T13:05:11;43.90;33.70
41924;DHT22;27613;48.116;11.656;2022-08-03T13:07:41;44.00;33.50
41924;DHT22;27613;48.116;11.656;2022-08-03T13:10:08;43.20;33.70
41924;DHT22;27613;48.116;11.656;2022-08-03T13:12:48;43.70;33.70
41924;DHT22;27613;48.116;11.656;2022-08-03T13:15:14;44.40;32.80
41924;DHT22;27613;48.116;11.656;2022-08-03T13:17:40;44.20;32.50
41924;DHT22;27613;48.116;11.656;2022-08-03T13:20:06;44.50;33.00
41924;DHT22;27613;48.116;11.656;2022-08-03T13:22:32;43.00;32.40
41924;DHT22;27613;48.116;11.656;2022-08-03T13:24:58;44.30;33.60
41924;DHT22;27613;48.116;11.656;2022-08-03T13:27:26;44.30;31.70
41924;DHT22;27613;48.116;11.656;2022-08-03T13:29:53;45.10;32.70
41924;DHT22;27613;48.116;11.656;2022-08-03T13:32:19;45.20;32.80
41924;DHT22;27613;48.116;11.656;2022-08-03T13:34:44;44.90;31.80
41924;DHT22;27613;48.116;11.656;2022-08-03T13:37:10;45.50;32.30
41924;DHT22;27613;48.116;11.656;2022-08-03T13:39:37;45.60;30.70
41924;DHT22;27613;48.116;11.656;2022-08-03T13:42:03;45.20;32.30
41924;DHT22;27613;48.116;11.656;2022-08-03T13:44:30;44.50;32.00
41924;DHT22;27613;48.116;11.656;2022-08-03T13:46:56;44.90;31.60
41924;DHT22;27613;48.116;11.656;2022-08-03T13:49:22;45.30;31.90
41924;DHT22;27613;48.116;11.656;2022-08-03T13:51:47;45.60;32.20
41924;DHT22;27613;48.116;11.656;2022-08-03T13:54:13;45.90;31.60
41924;DHT22;27613;48.116;11.656;2022-08-03T13:56:39;46.00;31.60
41924;DHT22;27613;48.116;11.656;2022-08-03T13:59:04;46.10;31.10
41924;DHT22;27613;48.116;11.656;2022-08-03T14:01:30;45.00;32.10
41924;DHT22;27613;48.116;11.656;2022-08-03T14:03:56;44.50;30.70
41924;DHT22;27613;48.116;11.656;2022-08-03T14:06:23;44.40;32.50
41924;DHT22;27613;48.116;11.656;2022-08-03T14:08:50;44.20;31.60
41924;DHT22;27613;48.116;11.656;2022-08-03T14:11:16;45.40;32.50
41924;DHT22;27613;48.116;11.656;2022-08-03T14:13:42;44.70;33.70
41924;DHT22;27613;48.116;11.656;2022-08-03T14:16:08;44.50;33.70
41924;DHT22;27613;48.116;11.656;2022-08-03T14:18:34;45.00;33.30
41924;DHT22;27613;48.116;11.656;2022-08-03T14:21:02;45.00;33.40
41924;DHT22;27613;48.116;11.656;2022-08-03T14:23:28;45.10;33.40
41924;DHT22;27613;48.116;11.656;2022-08-03T14:25:54;44.60;33.00
41924;DHT22;27613;48.116;11.656;2022-08-03T14:28:20;44.10;33.90
41924;DHT22;27613;48.116;11.656;2022-08-03T14:30:53;44.80;33.70
41924;DHT22;27613;48.116;11.656;2022-08-03T14:33:20;44.30;33.30
41924;DHT22;27613;48.116;11.656;2022-08-03T14:35:46;44.10;33.20
41924;DHT22;27613;48.116;11.656;2022-08-03T14:38:12;44.60;34.10
41924;DHT22;27613;48.116;11.656;2022-08-03T14:40:38;45.20;32.60
41924;DHT22;27613;48.116;11.656;2022-08-03T14:43:04;45.60;32.30
41924;DHT22;27613;48.116;11.656;2022-08-03T14:45:29;45.40;32.20
41924;DHT22;27613;48.116;11.656;2022-08-03T14:47:55;45.70;32.10
41924;DHT22;27613;48.116;11.656;2022-08-03T14:50:21;45.70;31.40
41924;DHT22;27613;48.116;11.656;2022-08-03T14:52:47;44.30;33.50
41924;DHT22;27613;48.116;11.656;2022-08-03T14:55:12;45.00;31.90
41924;DHT22;27613;48.116;11.656;2022-08-03T14:57:39;45.30;31.40
41924;DHT22;27613;48.116;11.656;2022-08-03T15:00:05;45.60;31.90
41924;DHT22;27613;48.116;11.656;2022-08-03T15:02:31;45.60;32.20
41924;DHT22;27613;48.116;11.656;2022-08-03T15:04:57;45.30;32.10
41924;DHT22;27613;48.116;11.656;2022-08-03T15:07:22;45.40;31.60
41924;DHT22;27613;48.116;11.656;2022-08-03T15:09:48;45.20;31.80
41924;DHT22;27613;48.116;11.656;2022-08-03T15:12:14;45.40;32.00
41924;DHT22;27613;48.116;11.656;2022-08-03T15:14:39;45.60;31.90
41924;DHT22;27613;48.116;11.656;2022-08-03T15:17:06;44.90;31.30
41924;DHT22;27613;48.116;11.656;2022-08-03T15:19:31;44.40;32.50
41924;DHT22;27613;48.116;11.656;2022-08-03T15:21:57;44.70;31.70
41924;DHT22;27613;48.116;11.656;2022-08-03T15:24:23;45.20;32.00
41924;DHT22;27613;48.116;11.656;2022-08-03T15:26:50;45.20;32.30
41924;DHT22;27613;48.116;11.656;2022-08-03T15:29:16;45.40;31.50
41924;DHT22;27613;48.116;11.656;2022-08-03T15:31:42;45.60;31.80
41924;DHT22;27613;48.116;11.656;2022-08-03T15:34:07;44.50;31.60
41924;DHT22;27613;48.116;11.656;2022-08-03T15:36:33;44.30;32.10
41924;DHT22;27613;48.116;11.656;2022-08-03T15:38:58;44.10;32.70
41924;DHT22;27613;48.116;11.656;2022-08-03T15:41:24;44.10;32.10
41924;DHT22;27613;48.116;11.656;2022-08-03T15:43:50;44.50;32.40
41924;DHT22;27613;48.116;11.656;2022-08-03T15:46:17;43.30;32.50
41924;DHT22;27613;48.116;11.656;2022-08-03T15:48:43;42.70;33.00
41924;DHT22;27613;48.116;11.656;2022-08-03T15:51:09;42.70;32.90
41924;DHT22;27613;48.116;11.656;2022-08-03T15:53:35;42.10;34.20
41924;DHT22;27613;48.116;11.656;2022-08-03T15:56:01;42.20;33.30